Time;durP1;ratioP1;P1;durP2;ratioP2;P2;SDS_P1;SDS_P2;PMS_P1;PMS_P2;Temp;Humidity;BMP_temperature;BMP_pressure;BME280_temperature;BME280_humidity;BME280_pressure;Samples;Min_cycle;Max_cycle;Signal;HPM_P1;HPM_P2
2023/02/28 00:01:12;;;;;;;4.53;3.13;;;2.40;99.90;;;;;;5038282;28;20895;-60
2023/02/28 00:03:38;;;;;;;5.47;3.33;;;2.40;99.90;;;;;;5037355;28;20025;-58
2023/02/28 00:06:05;;;;;;;6.05;3.75;;;2.40;99.90;;;;;;5036412;28;20399;-58
2023/02/28 00:08:31;;;;;;;5.45;2.83;;;2.40;99.90;;;;;;5038658;28;20021;-59
2023/02/28 00:11:00;;;;;;;6.00;2.97;;;2.40;99.90;;;;;;5038386;28;20021;-54
2023/02/28 00:13:25;;;;;;;4.65;2.97;;;2.40;99.90;;;;;;5037973;28;20037;-59
2023/02/28 00:16:00;;;;;;;3.75;2.97;;;2.40;99.90;;;;;;5037348;28;20026;-58
2023/02/28 00:18:25;;;;;;;4.05;2.95;;;2.30;99.90;;;;;;5039635;28;20026;-57
2023/02/28 00:20:51;;;;;;;6.32;3.10;;;2.30;99.90;;;;;;5038809;28;20042;-57
2023/02/28 00:23:16;;;;;;;4.35;3.50;;;2.30;99.90;;;;;;5038097;28;20025;-59
2023/02/28 00:25:42;;;;;;;4.72;3.67;;;2.30;99.90;;;;;;5037387;28;20472;-59
2023/02/28 00:28:08;;;;;;;3.63;2.92;;;2.30;99.90;;;;;;5038563;28;20079;-58
2023/02/28 00:30:33;;;;;;;4.55;2.80;;;2.30;99.90;;;;;;5038598;28;20029;-57
2023/02/28 00:32:59;;;;;;;4.20;2.70;;;2.20;99.90;;;;;;5038423;28;20016;-59
2023/02/28 00:35:24;;;;;;;4.82;3.20;;;2.20;99.90;;;;;;5037362;28;20045;-60
2023/02/28 00:37:50;;;;;;;3.33;2.63;;;2.20;99.90;;;;;;5036726;28;20025;-58
2023/02/28 00:40:16;;;;;;;4.00;2.50;;;2.10;99.90;;;;;;5036904;28;20525;-56
2023/02/28 00:42:41;;;;;;;4.40;2.58;;;2.10;99.90;;;;;;5038576;28;20053;-56
2023/02/28 00:45:10;;;;;;;5.43;3.45;;;2.10;99.90;;;;;;5037474;28;20068;-58
2023/02/28 00:47:35;;;;;;;5.68;3.22;;;2.10;99.90;;;;;;5037494;28;20388;-58
2023/02/28 00:50:01;;;;;;;9.48;3.17;;;2.00;99.90;;;;;;5036969;28;20059;-59
2023/02/28 00:52:26;;;;;;;4.43;2.80;;;2.00;99.90;;;;;;5036495;28;20483;-59
2023/02/28 00:54:52;;;;;;;5.47;2.35;;;2.00;99.90;;;;;;5038470;28;20104;-59
2023/02/28 00:57:18;;;;;;;5.63;3.33;;;2.00;99.90;;;;;;5037834;28;20025;-57
2023/02/28 00:59:43;;;;;;;4.00;3.00;;;2.00;99.90;;;;;;5037623;28;20036;-59
2023/02/28 01:02:09;;;;;;;8.02;3.90;;;2.00;99.90;;;;;;5035954;28;20028;-58
2023/02/28 01:04:35;;;;;;;6.88;3.45;;;2.00;99.90;;;;;;5035878;28;20029;-56
2023/02/28 01:07:01;;;;;;;5.57;3.53;;;1.90;99.90;;;;;;5038242;28;20032;-59
2023/02/28 01:09:27;;;;;;;6.45;3.20;;;1.90;99.90;;;;;;5035824;28;20025;-58
2023/02/28 01:11:52;;;;;;;7.50;4.07;;;1.90;99.90;;;;;;5037598;28;20498;-59
2023/02/28 01:14:18;;;;;;;5.68;3.90;;;1.90;99.90;;;;;;5037045;28;20082;-58
2023/02/28 01:16:44;;;;;;;5.85;4.15;;;1.90;99.90;;;;;;5038729;28;20479;-59
2023/02/28 01:19:10;;;;;;;7.18;4.28;;;1.90;99.90;;;;;;5036574;28;20122;-55
2023/02/28 01:21:36;;;;;;;7.93;4.88;;;1.90;99.90;;;;;;5036353;28;20032;-57
2023/02/28 01:24:05;;;;;;;7.75;4.35;;;1.90;99.90;;;;;;5037757;28;20498;-54
2023/02/28 01:26:31;;;;;;;6.28;4.75;;;1.90;99.90;;;;;;5037359;28;20104;-54
2023/02/28 01:28:57;;;;;;;5.65;4.40;;;1.90;99.90;;;;;;5036492;28;20464;-57
2023/02/28 01:31:23;;;;;;;6.85;4.07;;;1.90;99.90;;;;;;5036829;28;20041;-58
2023/02/28 01:33:49;;;;;;;6.88;4.63;;;1.90;99.90;;;;;;5036155;28;20518;-55
2023/02/28 01:36:18;;;;;;;9.18;4.78;;;1.90;99.90;;;;;;5037636;28;20025;-59
2023/02/28 01:38:45;;;;;;;6.35;4.57;;;1.90;99.90;;;;;;5037015;28;20049;-59
2023/02/28 01:41:20;;;;;;;5.55;3.80;;;1.90;99.90;;;;;;5038096;28;20047;-58
2023/02/28 01:43:46;;;;;;;6.05;4.00;;;1.80;99.90;;;;;;5037008;28;20052;-53
2023/02/28 01:46:12;;;;;;;5.80;4.25;;;1.80;99.90;;;;;;5032752;28;20056;-55
2023/02/28 01:48:42;;;;;;;6.68;4.20;;;1.80;99.90;;;;;;5038254;28;20045;-58
2023/02/28 01:51:17;;;;;;;6.13;3.78;;;1.80;99.90;;;;;;5037193;28;20029;-60
2023/02/28 01:53:47;;;;;;;4.72;4.10;;;1.80;99.90;;;;;;5040600;28;20071;-60
2023/02/28 01:56:20;;;;;;;7.65;4.53;;;1.70;99.90;;;;;;5040731;28;20044;-58
2023/02/28 01:58:48;;;;;;;7.13;4.35;;;1.80;99.90;;;;;;5037685;28;20029;-56
2023/02/28 02:01:21;;;;;;;9.70;4.00;;;1.70;99.90;;;;;;5038969;28;20428;-58
2023/02/28 02:03:56;;;;;;;7.18;4.07;;;1.70;99.90;;;;;;5038148;28;20017;-55
2023/02/28 02:06:28;;;;;;;5.50;3.90;;;1.70;99.90;;;;;;5039263;28;20567;-59
2023/02/28 02:08:54;;;;;;;9.80;3.92;;;1.70;99.90;;;;;;5039682;28;20471;-57
2023/02/28 02:11:23;;;;;;;7.60;4.22;;;1.60;99.90;;;;;;5040486;28;20035;-59
2023/02/28 02:14:21;;;;;;;5.57;3.65;;;1.60;99.90;;;;;;5039838;28;20028;-58
2023/02/28 02:17:07;;;;;;;6.88;3.65;;;1.60;99.90;;;;;;4952174;28;20043;-55
2023/02/28 02:19:57;;;;;;;6.10;4.40;;;1.60;99.90;;;;;;5041571;28;20483;-56
2023/02/28 02:22:32;;;;;;;6.63;4.13;;;1.50;99.90;;;;;;5039203;28;20038;-56
2023/02/28 02:25:37;;;;;;;5.57;4.00;;;1.50;99.90;;;;;;5039972;28;20032;-55
2023/02/28 02:28:27;;;;;;;7.13;4.22;;;1.50;99.90;;;;;;5040281;28;20036;-57
2023/02/28 02:31:21;;;;;;;5.13;3.90;;;1.50;99.90;;;;;;5038085;28;20024;-58
2023/02/28 02:34:26;;;;;;;7.47;4.40;;;1.50;99.90;;;;;;5039171;28;20402;-59
2023/02/28 02:36:58;;;;;;;7.70;4.47;;;1.40;99.90;;;;;;5038546;28;20020;-57
2023/02/28 02:39:51;;;;;;;5.53;4.50;;;1.40;99.90;;;;;;5039426;28;20160;-57
2023/02/28 02:42:26;;;;;;;6.50;4.00;;;1.40;99.90;;;;;;5040636;28;20024;-57
2023/02/28 02:45:35;;;;;;;5.28;3.25;;;1.40;99.90;;;;;;5040615;28;20147;-58
2023/02/28 02:48:03;;;;;;;6.28;4.07;;;1.40;99.90;;;;;;5038637;28;20468;-57
2023/02/28 02:50:42;;;;;;;5.68;3.70;;;1.40;99.90;;;;;;5036627;28;20029;-57
2023/02/28 02:53:09;;;;;;;6.07;4.00;;;1.40;99.90;;;;;;5037661;28;20040;-54
2023/02/28 02:55:39;;;;;;;8.45;4.05;;;1.40;99.90;;;;;;5038008;28;20029;-59
2023/02/28 02:58:09;;;;;;;8.15;3.90;;;1.40;99.90;;;;;;5038701;28;20344;-56
2023/02/28 03:00:42;;;;;;;5.40;3.65;;;1.40;99.90;;;;;;5038548;28;20486;-59
2023/02/28 03:03:10;;;;;;;6.80;3.22;;;1.30;99.90;;;;;;5039178;28;20506;-58
2023/02/28 03:05:45;;;;;;;7.57;4.55;;;1.30;99.90;;;;;;5037267;28;20076;-59
2023/02/28 03:08:11;;;;;;;7.75;4.40;;;1.30;99.90;;;;;;5039751;28;20459;-57
2023/02/28 03:10:36;;;;;;;6.28;4.13;;;1.30;99.90;;;;;;5037385;28;20029;-54
2023/02/28 03:13:17;;;;;;;6.93;3.88;;;1.30;99.90;;;;;;5039861;28;20037;-55
2023/02/28 03:16:03;;;;;;;12.27;4.03;;;1.30;99.90;;;;;;5038172;28;20065;-55
2023/02/28 03:18:40;;;;;;;4.40;3.10;;;1.30;99.90;;;;;;5039704;28;20203;-56
2023/02/28 03:21:26;;;;;;;6.28;3.67;;;1.30;99.90;;;;;;5037960;28;20038;-56
2023/02/28 03:24:08;;;;;;;4.03;3.25;;;1.20;99.90;;;;;;5037993;28;20060;-57
2023/02/28 03:26:39;;;;;;;5.15;3.17;;;1.20;99.90;;;;;;5039436;28;20037;-59
2023/02/28 03:29:15;;;;;;;5.55;3.83;;;1.20;99.90;;;;;;5038884;28;20345;-59
2023/02/28 03:31:44;;;;;;;;;;;1.10;99.90;;;;;;5038873;28;20029;-55
2023/02/28 03:34:18;;;;;;;5.70;3.45;;;1.10;99.90;;;;;;5038687;28;20029;-54
2023/02/28 03:36:51;;;;;;;6.97;3.45;;;1.00;99.90;;;;;;5039412;28;20470;-56
2023/02/28 03:39:22;;;;;;;6.20;3.60;;;1.00;99.90;;;;;;5038592;28;20125;-58
2023/02/28 03:42:01;;;;;;;5.82;3.63;;;0.90;99.90;;;;;;5038697;28;20048;-55
2023/02/28 03:44:39;;;;;;;8.05;3.47;;;0.90;99.90;;;;;;5038897;28;20025;-56
2023/02/28 03:47:10;;;;;;;6.03;4.15;;;0.90;99.90;;;;;;5038604;28;20499;-56
2023/02/28 03:49:47;;;;;;;6.13;3.55;;;0.90;99.90;;;;;;5037892;28;20511;-58
2023/02/28 03:52:14;;;;;;;7.38;4.22;;;0.90;99.90;;;;;;5036959;28;20442;-57
2023/02/28 03:54:45;;;;;;;4.75;3.85;;;0.80;99.90;;;;;;5038813;28;20040;-55
2023/02/28 03:57:23;;;;;;;6.47;3.40;;;0.80;99.90;;;;;;5039296;28;20118;-57
2023/02/28 03:59:58;;;;;;;6.35;3.60;;;0.80;99.90;;;;;;5036788;28;20124;-57
2023/02/28 04:02:24;;;;;;;7.18;4.13;;;0.70;99.90;;;;;;5036667;28;20044;-53
2023/02/28 04:04:50;;;;;;;6.78;3.70;;;0.70;99.90;;;;;;5038078;28;20029;-54
2023/02/28 04:07:17;;;;;;;5.32;3.53;;;0.60;99.90;;;;;;5038448;28;20063;-55
2023/02/28 04:09:43;;;;;;;6.95;4.20;;;0.60;99.90;;;;;;5038750;28;20105;-58
2023/02/28 04:12:08;;;;;;;8.13;3.97;;;0.60;99.90;;;;;;5037653;28;20183;-57
2023/02/28 04:14:34;;;;;;;6.03;3.85;;;0.50;99.90;;;;;;5036765;28;20540;-57
2023/02/28 04:16:59;;;;;;;5.88;4.05;;;0.50;99.90;;;;;;5037559;28;20110;-59
2023/02/28 04:19:25;;;;;;;4.00;3.50;;;0.40;99.90;;;;;;5038623;28;20132;-59
2023/02/28 04:21:52;;;;;;;6.00;3.67;;;0.30;99.90;;;;;;5039152;28;20172;-57
2023/02/28 04:24:23;;;;;;;5.95;3.92;;;0.30;99.90;;;;;;5039315;28;22249;-52
2023/02/28 04:26:51;;;;;;;5.15;3.90;;;0.30;99.90;;;;;;5038814;28;20155;-57
2023/02/28 04:29:23;;;;;;;5.20;3.47;;;0.30;99.90;;;;;;5038185;28;20498;-58
2023/02/28 04:31:49;;;;;;;6.75;4.00;;;0.30;99.90;;;;;;5038216;28;20126;-57
2023/02/28 04:34:15;;;;;;;5.85;4.55;;;0.20;99.90;;;;;;5036110;28;20029;-59
2023/02/28 04:36:41;;;;;;;6.03;4.03;;;0.20;99.90;;;;;;5035751;28;20022;-57
2023/02/28 04:39:06;;;;;;;7.25;4.18;;;0.20;99.90;;;;;;5036080;28;20025;-59
2023/02/28 04:41:32;;;;;;;6.10;4.15;;;0.20;99.90;;;;;;5038483;28;20022;-56
2023/02/28 04:43:57;;;;;;;8.07;3.88;;;0.10;99.90;;;;;;5038427;28;20517;-55
2023/02/28 04:46:23;;;;;;;5.85;3.88;;;0.00;99.90;;;;;;5037148;28;20038;-57
2023/02/28 04:48:49;;;;;;;6.93;3.47;;;0.00;99.90;;;;;;5037741;28;20025;-57
2023/02/28 04:51:17;;;;;;;4.20;3.47;;;-0.10;99.90;;;;;;5038142;28;20100;-58
2023/02/28 04:53:42;;;;;;;5.22;3.65;;;-0.10;99.90;;;;;;5038287;28;20452;-57
2023/02/28 04:56:11;;;;;;;8.07;4.00;;;-0.20;99.90;;;;;;5037384;28;20104;-57
2023/02/28 04:58:37;;;;;;;5.97;3.70;;;-0.20;99.90;;;;;;5038428;28;20413;-55
2023/02/28 05:01:12;;;;;;;5.53;3.67;;;-0.30;99.90;;;;;;5036759;28;20036;-58
2023/02/28 05:03:40;;;;;;;8.75;4.72;;;-0.30;99.90;;;;;;5036678;28;20083;-55
2023/02/28 05:06:07;;;;;;;9.98;4.57;;;-0.40;99.90;;;;;;5037704;28;20029;-56
2023/02/28 05:08:33;;;;;;;5.65;4.45;;;-0.50;99.90;;;;;;5036936;28;20026;-56
2023/02/28 05:11:00;;;;;;;5.72;4.38;;;-0.50;99.90;;;;;;5037500;28;20075;-55
2023/02/28 05:13:26;;;;;;;6.47;4.68;;;-0.60;99.90;;;;;;5037396;28;20084;-57
2023/02/28 05:15:52;;;;;;;6.45;4.30;;;-0.60;99.90;;;;;;5037859;28;20036;-57
2023/02/28 05:18:17;;;;;;;5.28;3.95;;;-0.70;99.90;;;;;;5037809;28;20025;-56
2023/02/28 05:20:43;;;;;;;6.90;4.13;;;-0.70;99.90;;;;;;5037568;28;20033;-57
2023/02/28 05:23:12;;;;;;;8.75;4.40;;;-0.80;99.90;;;;;;5037400;28;20392;-52
2023/02/28 05:25:38;;;;;;;7.88;4.38;;;-0.80;99.90;;;;;;5037651;28;20402;-54
2023/02/28 05:28:04;;;;;;;4.40;4.00;;;-0.80;99.90;;;;;;5042280;28;20021;-57
2023/02/28 05:30:31;;;;;;;9.18;4.18;;;-0.80;99.90;;;;;;5041171;28;20036;-57
2023/02/28 05:32:57;;;;;;;5.55;4.38;;;-0.90;99.90;;;;;;5040188;28;20491;-52
2023/02/28 05:35:23;;;;;;;7.03;4.20;;;-0.90;99.90;;;;;;5041165;28;20032;-55
2023/02/28 05:37:48;;;;;;;9.75;4.18;;;-0.90;99.90;;;;;;5041179;28;20034;-53
2023/02/28 05:40:15;;;;;;;7.70;4.13;;;-1.00;99.90;;;;;;5040497;28;20026;-54
2023/02/28 05:42:41;;;;;;;8.38;3.88;;;-1.00;99.90;;;;;;5041328;28;20052;-56
2023/02/28 05:45:08;;;;;;;5.70;3.55;;;-1.00;99.90;;;;;;5040979;28;20029;-56
2023/02/28 05:47:34;;;;;;;6.95;4.10;;;-1.10;99.90;;;;;;5040163;28;20025;-57
2023/02/28 05:50:00;;;;;;;4.55;3.10;;;-1.10;99.90;;;;;;5041999;28;20029;-55
2023/02/28 05:52:25;;;;;;;5.00;3.10;;;-1.10;99.90;;;;;;5038608;28;20033;-58
2023/02/28 05:54:51;;;;;;;5.63;3.85;;;-1.10;99.90;;;;;;5041554;28;20036;-57
2023/02/28 05:57:17;;;;;;;7.50;3.80;;;-1.10;99.90;;;;;;5041717;28;20025;-58
2023/02/28 05:59:42;;;;;;;7.03;4.22;;;-1.10;99.90;;;;;;5042506;28;20396;-59
2023/02/28 06:02:13;;;;;;;5.35;3.63;;;-1.10;99.90;;;;;;5041158;28;20025;-56
2023/02/28 06:04:40;;;;;;;4.78;3.63;;;-1.10;99.90;;;;;;5040519;28;20037;-53
2023/02/28 06:07:06;;;;;;;6.47;4.35;;;-1.10;99.90;;;;;;5039760;28;20615;-57
2023/02/28 06:09:32;;;;;;;8.07;4.38;;;-1.10;99.90;;;;;;5040115;28;20028;-57
2023/02/28 06:11:59;;;;;;;8.15;4.15;;;-1.10;99.90;;;;;;5040409;28;20353;-55
2023/02/28 06:14:25;;;;;;;4.63;4.15;;;-1.10;99.90;;;;;;5040952;28;20113;-56
2023/02/28 06:16:52;;;;;;;5.38;4.03;;;-1.10;99.90;;;;;;5039632;28;20387;-57
2023/02/28 06:19:17;;;;;;;7.63;4.03;;;-1.20;99.90;;;;;;5039294;28;20177;-55
2023/02/28 06:21:43;;;;;;;6.38;4.03;;;-1.20;99.90;;;;;;5040086;28;20566;-57
2023/02/28 06:24:10;;;;;;;5.43;3.80;;;-1.30;99.90;;;;;;5040125;28;20106;-58
2023/02/28 06:26:35;;;;;;;8.55;4.45;;;-1.30;99.90;;;;;;5040856;28;20028;-55
2023/02/28 06:29:01;;;;;;;7.47;3.80;;;-1.30;99.90;;;;;;5040509;28;20391;-57
2023/02/28 06:31:28;;;;;;;9.65;3.92;;;-1.30;99.90;;;;;;5040039;28;20567;-53
2023/02/28 06:33:54;;;;;;;4.47;3.40;;;-1.30;99.90;;;;;;5040334;28;20033;-52
2023/02/28 06:36:20;;;;;;;5.82;3.97;;;-1.40;99.90;;;;;;5038033;28;20028;-58
2023/02/28 06:38:48;;;;;;;5.13;3.65;;;-1.40;99.90;;;;;;5039508;28;20079;-55
2023/02/28 06:41:13;;;;;;;4.90;3.80;;;-1.40;99.90;;;;;;5041011;28;20391;-57
2023/02/28 06:43:41;;;;;;;6.25;4.07;;;-1.40;99.90;;;;;;5040643;28;20033;-53
2023/02/28 06:46:10;;;;;;;6.85;3.63;;;-1.40;99.90;;;;;;5039345;28;20029;-57
2023/02/28 06:48:36;;;;;;;5.60;3.97;;;-1.40;99.90;;;;;;5039830;28;20387;-57
2023/02/28 06:51:06;;;;;;;6.32;3.90;;;-1.40;99.90;;;;;;5040311;28;20033;-56
2023/02/28 06:53:33;;;;;;;6.47;4.57;;;-1.40;99.90;;;;;;5039654;28;20486;-55
2023/02/28 06:55:58;;;;;;;4.57;3.65;;;-1.40;99.90;;;;;;5039806;28;20091;-57
2023/02/28 06:58:24;;;;;;;6.28;3.92;;;-1.40;99.90;;;;;;5038492;28;20033;-55
2023/02/28 07:00:52;;;;;;;5.38;3.88;;;-1.40;99.90;;;;;;5038231;28;20059;-54
2023/02/28 07:03:19;;;;;;;7.07;4.22;;;-1.40;99.90;;;;;;5037647;28;20514;-57
2023/02/28 07:05:45;;;;;;;9.27;4.38;;;-1.40;99.90;;;;;;5039544;28;20032;-54
2023/02/28 07:08:11;;;;;;;6.97;4.80;;;-1.40;99.90;;;;;;5039849;28;20095;-54
2023/02/28 07:10:40;;;;;;;5.35;3.97;;;-1.40;99.90;;;;;;5039230;28;20121;-56
2023/02/28 07:13:08;;;;;;;9.85;4.60;;;-1.40;99.90;;;;;;5039149;28;20530;-55
2023/02/28 07:15:35;;;;;;;6.82;4.18;;;-1.30;99.90;;;;;;5040447;28;20029;-55
2023/02/28 07:18:00;;;;;;;8.45;4.75;;;-1.40;99.90;;;;;;5038775;28;20025;-57
2023/02/28 07:20:26;;;;;;;6.13;4.22;;;-1.30;99.90;;;;;;5039110;28;20150;-55
2023/02/28 07:22:57;;;;;;;6.20;4.32;;;-1.30;99.90;;;;;;5039607;28;20384;-57
2023/02/28 07:25:24;;;;;;;6.90;4.20;;;-1.30;99.90;;;;;;5039995;28;20082;-55
2023/02/28 07:27:50;;;;;;;7.03;5.28;;;-1.30;99.90;;;;;;5039408;28;20059;-53
2023/02/28 07:30:16;;;;;;;6.93;4.88;;;-1.30;99.90;;;;;;5038051;28;20089;-57
2023/02/28 07:32:41;;;;;;;8.02;5.05;;;-1.20;99.90;;;;;;5037628;28;20577;-58
2023/02/28 07:35:08;;;;;;;9.25;5.40;;;-1.20;99.90;;;;;;5038667;28;20044;-58
2023/02/28 07:37:36;;;;;;;6.95;4.78;;;-1.20;99.90;;;;;;5036439;28;20083;-59
2023/02/28 07:40:08;;;;;;;6.05;4.40;;;-1.20;99.90;;;;;;5038037;28;20068;-58
2023/02/28 07:42:34;;;;;;;8.02;4.75;;;-1.10;99.90;;;;;;5038006;28;20479;-58
2023/02/28 07:45:00;;;;;;;7.63;5.30;;;-1.10;99.90;;;;;;5038040;28;20048;-58
2023/02/28 07:47:26;;;;;;;10.23;5.43;;;-1.00;99.90;;;;;;5039233;28;20023;-57
2023/02/28 07:49:52;;;;;;;8.52;4.80;;;-1.00;99.90;;;;;;5038366;28;20488;-56
2023/02/28 07:52:18;;;;;;;9.88;5.80;;;-0.90;99.90;;;;;;5038914;28;20025;-57
2023/02/28 07:54:43;;;;;;;8.27;5.30;;;-0.90;99.90;;;;;;5039386;28;20195;-56
2023/02/28 07:57:09;;;;;;;6.95;4.93;;;-0.80;99.90;;;;;;5037700;28;20292;-58
2023/02/28 07:59:34;;;;;;;8.85;4.47;;;-0.70;99.90;;;;;;5039519;28;20040;-57
2023/02/28 08:02:00;;;;;;;5.18;4.50;;;-0.70;99.90;;;;;;5038889;28;20033;-56
2023/02/28 08:04:26;;;;;;;5.47;3.83;;;-0.50;99.90;;;;;;5039533;28;20074;-58
2023/02/28 08:06:56;;;;;;;7.13;3.67;;;-0.50;99.90;;;;;;5040227;28;20067;-56
2023/02/28 08:09:21;;;;;;;9.10;4.45;;;-0.40;99.90;;;;;;5038511;28;20026;-58
2023/02/28 08:11:47;;;;;;;7.57;4.53;;;-0.30;99.90;;;;;;5038654;28;20032;-57
2023/02/28 08:14:13;;;;;;;9.00;4.20;;;-0.20;99.90;;;;;;5038912;28;20021;-59
2023/02/28 08:16:39;;;;;;;6.28;4.00;;;0.00;99.90;;;;;;5038338;28;20031;-56
2023/02/28 08:19:04;;;;;;;7.53;4.10;;;0.10;99.90;;;;;;5037903;28;20111;-57
2023/02/28 08:21:30;;;;;;;6.07;4.10;;;0.30;99.90;;;;;;5038428;28;20037;-57
2023/02/28 08:23:56;;;;;;;9.65;3.85;;;0.40;99.90;;;;;;5038417;28;20021;-54
2023/02/28 08:26:22;;;;;;;6.53;3.55;;;0.50;99.90;;;;;;5039046;28;20013;-57
2023/02/28 08:28:48;;;;;;;5.28;3.30;;;0.60;99.90;;;;;;5038161;28;20021;-58
2023/02/28 08:31:15;;;;;;;8.18;4.20;;;0.80;99.90;;;;;;5038169;28;20530;-58
2023/02/28 08:33:42;;;;;;;6.30;3.58;;;0.90;99.90;;;;;;5038199;28;20406;-56
2023/02/28 08:36:09;;;;;;;5.55;3.35;;;1.10;99.90;;;;;;5037072;28;20041;-55
2023/02/28 08:38:35;;;;;;;4.88;3.35;;;1.20;99.90;;;;;;5037494;28;20038;-58
2023/02/28 08:41:07;;;;;;;5.82;3.40;;;1.50;99.90;;;;;;5037976;28;20517;-57
2023/02/28 08:43:33;;;;;;;7.45;2.78;;;1.70;99.90;;;;;;5037059;28;20387;-58
2023/02/28 08:45:59;;;;;;;7.97;2.90;;;1.90;99.90;;;;;;5037105;28;20036;-58
2023/02/28 08:48:27;;;;;;;8.27;3.65;;;2.10;99.90;;;;;;5038474;28;20100;-57
2023/02/28 08:51:05;;;;;;;5.75;3.25;;;2.30;99.90;;;;;;5037705;28;20087;-56
2023/02/28 08:53:31;;;;;;;4.82;3.03;;;2.40;99.90;;;;;;5037661;28;20103;-55
2023/02/28 08:56:11;;;;;;;3.05;2.67;;;2.50;99.90;;;;;;5037854;28;20108;-57
2023/02/28 08:58:37;;;;;;;5.75;3.00;;;2.70;99.90;;;;;;5037078;28;20029;-57
2023/02/28 09:01:13;;;;;;;3.47;2.33;;;2.90;99.90;;;;;;5037544;28;20029;-55
2023/02/28 09:03:41;;;;;;;3.85;2.13;;;3.10;99.90;;;;;;5037786;28;20047;-55
2023/02/28 09:06:07;;;;;;;5.97;2.38;;;3.20;99.90;;;;;;5037079;28;20026;-58
2023/02/28 09:08:33;;;;;;;5.43;2.33;;;3.30;99.90;;;;;;5037331;28;20079;-59
2023/02/28 09:10:59;;;;;;;6.20;2.42;;;3.40;99.90;;;;;;5037767;28;20029;-56
2023/02/28 09:13:26;;;;;;;2.45;2.10;;;3.60;99.90;;;;;;5037258;28;20032;-59
2023/02/28 09:15:52;;;;;;;1.98;1.40;;;3.70;99.90;;;;;;5037639;28;20064;-58
2023/02/28 09:18:18;;;;;;;4.30;2.10;;;3.80;99.90;;;;;;5038076;28;20490;-58
2023/02/28 09:20:44;;;;;;;3.92;1.63;;;3.90;99.90;;;;;;5035927;28;20164;-58
2023/02/28 09:23:12;;;;;;;2.70;1.48;;;4.00;99.90;;;;;;5036894;28;20033;-58
2023/02/28 09:25:44;;;;;;;2.88;1.70;;;4.10;99.90;;;;;;5038295;28;20083;-59
2023/02/28 09:28:10;;;;;;;6.90;3.95;;;4.30;99.90;;;;;;5036209;28;20091;-58
2023/02/28 09:30:36;;;;;;;15.65;8.25;;;4.40;99.90;;;;;;5033293;28;20119;-56
2023/02/28 09:33:01;;;;;;;6.38;3.85;;;4.40;99.90;;;;;;5035947;28;20613;-58
2023/02/28 09:35:27;;;;;;;1.42;1.33;;;4.50;99.90;;;;;;5036844;28;20112;-59
2023/02/28 09:37:52;;;;;;;1.35;1.25;;;4.60;99.90;;;;;;5036984;28;20045;-57
2023/02/28 09:40:21;;;;;;;3.25;1.55;;;4.70;99.90;;;;;;5037758;28;20039;-60
2023/02/28 09:42:51;;;;;;;1.40;1.20;;;4.80;99.90;;;;;;5036189;28;20139;-58
2023/02/28 09:45:39;;;;;;;1.52;1.10;;;4.80;99.90;;;;;;5035189;28;20029;-60
2023/02/28 09:48:15;;;;;;;5.72;2.30;;;4.90;99.90;;;;;;5037424;28;20048;-60
2023/02/28 09:50:46;;;;;;;5.70;2.05;;;4.90;99.90;;;;;;5036957;28;20099;-60
2023/02/28 09:53:38;;;;;;;3.58;1.75;;;5.00;99.90;;;;;;5037118;28;20040;-60
2023/02/28 09:56:05;;;;;;;4.88;1.95;;;5.10;99.90;;;;;;5037242;28;20412;-60
2023/02/28 09:58:36;;;;;;;2.45;2.00;;;5.20;99.90;;;;;;5037055;28;20026;-57
2023/02/28 10:01:22;;;;;;;2.53;1.27;;;5.20;99.90;;;;;;5036901;28;20376;-59
2023/02/28 10:03:56;;;;;;;4.13;1.45;;;5.30;99.90;;;;;;5037033;28;20017;-60
2023/02/28 10:06:28;;;;;;;3.55;1.63;;;5.40;99.90;;;;;;5037286;28;20032;-58
2023/02/28 10:09:05;;;;;;;1.38;1.27;;;5.50;99.90;;;;;;5036292;28;20095;-60
2023/02/28 10:11:33;;;;;;;4.28;1.80;;;5.60;99.90;;;;;;5037538;28;20029;-60
2023/02/28 10:14:02;;;;;;;1.92;1.40;;;5.60;99.90;;;;;;5041543;28;20025;-58
2023/02/28 10:16:37;;;;;;;3.53;1.73;;;5.70;99.90;;;;;;5039539;28;20025;-60
2023/02/28 10:19:09;;;;;;;2.22;1.40;;;5.70;99.90;;;;;;5039568;28;20041;-59
2023/02/28 10:21:58;;;;;;;2.97;2.08;;;5.70;99.90;;;;;;5040642;28;20033;-56
2023/02/28 10:24:32;;;;;;;2.45;1.45;;;5.70;99.90;;;;;;5041015;28;20119;-60
2023/02/28 10:27:04;;;;;;;4.28;1.70;;;5.80;99.90;;;;;;5037648;28;20025;-59
2023/02/28 10:29:32;;;;;;;2.17;1.65;;;5.80;99.90;;;;;;5040097;28;20022;-58
2023/02/28 10:32:02;;;;;;;3.50;1.58;;;5.80;99.90;;;;;;5038376;28;20032;-58
2023/02/28 10:34:28;;;;;;;1.20;1.13;;;5.90;99.90;;;;;;5040642;28;20171;-59
2023/02/28 10:36:55;;;;;;;2.83;1.48;;;6.00;99.90;;;;;;5040417;28;20625;-59
2023/02/28 10:39:42;;;;;;;2.90;1.27;;;6.00;99.90;;;;;;5038142;28;20037;-56
2023/02/28 10:42:26;;;;;;;1.92;1.45;;;6.10;99.90;;;;;;5039625;28;20112;-59
2023/02/28 10:45:16;;;;;;;2.00;1.48;;;6.10;99.90;;;;;;5039653;28;20051;-59
2023/02/28 10:48:00;;;;;;;2.45;1.50;;;6.20;99.90;;;;;;5040151;28;20108;-58
2023/02/28 10:50:49;;;;;;;5.68;1.77;;;6.30;99.90;;;;;;5039784;28;20029;-55
2023/02/28 10:53:27;;;;;;;1.75;1.10;;;6.30;99.90;;;;;;5040004;28;20030;-59
2023/02/28 10:56:10;;;;;;;2.60;1.50;;;6.30;99.90;;;;;;5040159;28;20025;-54
2023/02/28 10:58:57;;;;;;;2.15;1.60;;;6.30;99.90;;;;;;5038851;28;20450;-56
2023/02/28 11:01:30;;;;;;;2.47;1.35;;;6.40;99.90;;;;;;5055270;28;20056;-54
2023/02/28 11:03:57;;;;;;;2.17;1.35;;;6.40;99.90;;;;;;5039161;28;20029;-57
2023/02/28 11:06:28;;;;;;;5.03;1.58;;;6.50;99.90;;;;;;5040441;28;20017;-57
2023/02/28 11:08:56;;;;;;;4.68;1.48;;;6.60;99.90;;;;;;5039889;28;20346;-56
2023/02/28 11:11:25;;;;;;;1.48;1.30;;;6.60;99.90;;;;;;5039783;28;20033;-59
2023/02/28 11:13:57;;;;;;;3.20;1.63;;;6.60;99.90;;;;;;5037181;28;20037;-58
2023/02/28 11:16:33;;;;;;;1.98;1.48;;;6.50;99.80;;;;;;5039221;28;20052;-57
2023/02/28 11:18:59;;;;;;;1.95;1.17;;;6.50;99.90;;;;;;5039859;28;20025;-58
2023/02/28 11:21:27;;;;;;;2.72;1.40;;;6.50;99.90;;;;;;5039554;28;20033;-60
2023/02/28 11:24:00;;;;;;;4.32;2.03;;;6.50;99.90;;;;;;5038553;28;20381;-60
2023/02/28 11:26:43;;;;;;;2.15;1.55;;;6.50;99.90;;;;;;5039970;28;20022;-60
2023/02/28 11:29:30;;;;;;;1.85;1.30;;;6.50;99.90;;;;;;5037748;28;20479;-59
2023/02/28 11:32:03;;;;;;;1.58;1.42;;;6.50;99.80;;;;;;5039325;28;20027;-57
2023/02/28 11:34:29;;;;;;;1.50;1.13;;;6.60;99.90;;;;;;5037759;28;20091;-59
2023/02/28 11:36:58;;;;;;;2.17;1.15;;;6.60;99.50;;;;;;5040274;28;20483;-60
2023/02/28 11:39:24;;;;;;;2.65;1.42;;;6.60;98.90;;;;;;5037909;28;20044;-58
2023/02/28 11:41:56;;;;;;;1.30;1.20;;;6.50;97.00;;;;;;5039250;28;20078;-58
2023/02/28 11:44:46;;;;;;;2.58;1.55;;;6.40;97.00;;;;;;5039011;28;20471;-60
2023/02/28 11:47:17;;;;;;;2.65;1.77;;;6.50;98.60;;;;;;5037984;28;20033;-60
2023/02/28 11:49:49;;;;;;;2.83;1.60;;;6.50;96.60;;;;;;5038877;28;20032;-58
2023/02/28 11:52:38;;;;;;;1.00;1.00;;;6.50;95.30;;;;;;5039460;28;20041;-59
2023/02/28 11:55:15;;;;;;;2.53;1.48;;;6.40;94.30;;;;;;5054509;28;20036;-58
2023/02/28 11:57:59;;;;;;;2.65;1.60;;;6.40;94.80;;;;;;5039060;28;20329;-60
2023/02/28 12:00:57;;;;;;;1.73;1.40;;;6.30;96.00;;;;;;5037225;28;20080;-59
2023/02/28 12:03:35;;;;;;;1.20;1.10;;;6.40;97.30;;;;;;5038957;28;20486;-59
2023/02/28 12:06:36;;;;;;;2.30;1.02;;;6.50;97.80;;;;;;5037716;28;20544;-59
2023/02/28 12:09:20;;;;;;;2.80;1.35;;;6.50;97.60;;;;;;5039410;28;20395;-60
2023/02/28 12:12:21;;;;;;;1.80;1.20;;;6.50;95.80;;;;;;5037660;28;20129;-59
2023/02/28 12:15:19;;;;;;;2.47;1.40;;;6.50;95.70;;;;;;5039082;28;20402;-57
2023/02/28 12:18:09;;;;;;;1.42;1.33;;;6.50;94.30;;;;;;5037593;28;20044;-59
2023/02/28 12:20:44;;;;;;;1.83;1.05;;;6.50;95.70;;;;;;5038491;28;20505;-60
2023/02/28 12:23:40;;;;;;;1.20;1.00;;;6.60;94.20;;;;;;5038245;28;20108;-60
2023/02/28 12:26:26;;;;;;;1.63;0.90;;;6.60;95.30;;;;;;5037821;28;20055;-60
2023/02/28 12:29:14;;;;;;;1.42;0.85;;;6.50;94.50;;;;;;5037948;28;20435;-57
2023/02/28 12:31:45;;;;;;;1.52;1.10;;;6.60;94.50;;;;;;5035917;28;20037;-60
2023/02/28 12:34:16;;;;;;;2.33;1.33;;;6.50;93.30;;;;;;5037416;28;20112;-59
2023/02/28 12:36:45;;;;;;;1.35;1.10;;;6.50;94.20;;;;;;5037024;28;20901;-57
2023/02/28 12:39:36;;;;;;;1.45;1.08;;;6.50;92.50;;;;;;5036949;28;20394;-57
2023/02/28 12:42:10;;;;;;;4.82;1.50;;;6.50;91.80;;;;;;5034633;28;20041;-58
2023/02/28 12:44:44;;;;;;;2.25;0.95;;;6.50;93.80;;;;;;5038269;28;20022;-58
2023/02/28 12:47:15;;;;;;;3.15;1.45;;;6.50;92.80;;;;;;5039096;28;20013;-58
2023/02/28 12:49:46;;;;;;;2.85;1.83;;;6.50;94.00;;;;;;5036335;28;20035;-55
2023/02/28 12:52:16;;;;;;;1.63;1.23;;;6.50;92.50;;;;;;5038563;28;20030;-57
2023/02/28 12:54:49;;;;;;;2.50;1.10;;;6.50;92.40;;;;;;5037237;28;20033;-59
2023/02/28 12:57:37;;;;;;;1.20;1.10;;;6.50;92.30;;;;;;5038292;28;20036;-58
2023/02/28 13:00:14;;;;;;;2.75;1.60;;;6.50;92.10;;;;;;5037834;28;20122;-58
2023/02/28 13:02:42;;;;;;;6.40;1.27;;;6.50;93.50;;;;;;5038164;28;20032;-59
2023/02/28 13:05:33;;;;;;;2.28;1.20;;;6.60;92.60;;;;;;5037262;28;20391;-58
2023/02/28 13:08:40;;;;;;;2.35;1.38;;;6.60;93.00;;;;;;5038515;28;20029;-57
2023/02/28 13:11:06;;;;;;;1.30;1.00;;;6.60;92.20;;;;;;5037028;28;20088;-60
2023/02/28 13:13:32;;;;;;;1.30;1.20;;;6.60;92.20;;;;;;5038498;28;20442;-60
2023/02/28 13:16:10;;;;;;;1.58;1.00;;;6.70;93.40;;;;;;5038489;28;20028;-59